sensor_id;sensor_type;location;lat;lon;timestamp;pressure;altitude;pressure_sealevel;temperature;humidity
38688;BME280;24444;53.216;-6.664;2022-10-16T00:01:16;98938.42;;;1.63;100.00
38688;BME280;24444;53.216;-6.664;2022-10-16T00:03:45;98947.43;;;1.34;100.00
38688;BME280;24444;53.216;-6.664;2022-10-16T00:06:13;98954.48;;;1.55;100.00
38688;BME280;24444;53.216;-6.664;2022-10-16T00:08:41;98958.53;;;1.73;100.00
38688;BME280;24444;53.216;-6.664;2022-10-16T00:11:11;98964.80;;;1.22;100.00
38688;BME280;24444;53.216;-6.664;2022-10-16T00:13:40;98964.68;;;1.44;100.00
38688;BME280;24444;53.216;-6.664;2022-10-16T00:16:09;98970.31;;;1.64;100.00
38688;BME280;24444;53.216;-6.664;2022-10-16T00:18:37;98973.78;;;1.56;100.00
38688;BME280;24444;53.216;-6.664;2022-10-16T00:21:08;98976.96;;;1.36;100.00
38688;BME280;24444;53.216;-6.664;2022-10-16T00:23:36;98979.93;;;1.86;100.00
38688;BME280;24444;53.216;-6.664;2022-10-16T00:26:06;98983.69;;;1.57;100.00
38688;BME280;24444;53.216;-6.664;2022-10-16T00:28:35;98993.31;;;1.05;100.00
38688;BME280;24444;53.216;-6.664;2022-10-16T00:31:04;99000.27;;;1.60;100.00
38688;BME280;24444;53.216;-6.664;2022-10-16T00:33:31;99006.81;;;1.33;100.00
38688;BME280;24444;53.216;-6.664;2022-10-16T00:38:06;99016.16;;;1.09;100.00
38688;BME280;24444;53.216;-6.664;2022-10-16T00:40:33;99016.86;;;0.96;100.00
38688;BME280;24444;53.216;-6.664;2022-10-16T00:43:01;99013.11;;;1.01;100.00
38688;BME280;24444;53.216;-6.664;2022-10-16T00:45:28;99015.72;;;1.09;100.00
38688;BME280;24444;53.216;-6.664;2022-10-16T00:47:56;99021.03;;;1.09;100.00
38688;BME280;24444;53.216;-6.664;2022-10-16T00:50:27;99025.68;;;1.43;100.00
38688;BME280;24444;53.216;-6.664;2022-10-16T00:52:56;99027.13;;;1.07;100.00
38688;BME280;24444;53.216;-6.664;2022-10-16T00:55:24;99029.61;;;1.21;100.00
38688;BME280;24444;53.216;-6.664;2022-10-16T00:57:52;99033.15;;;1.01;100.00
38688;BME280;24444;53.216;-6.664;2022-10-16T01:00:22;99033.85;;;1.44;100.00
38688;BME280;24444;53.216;-6.664;2022-10-16T01:02:53;99037.01;;;1.06;100.00
38688;BME280;24444;53.216;-6.664;2022-10-16T01:05:21;99036.83;;;0.27;100.00
38688;BME280;24444;53.216;-6.664;2022-10-16T01:07:56;99036.07;;;1.11;100.00
38688;BME280;24444;53.216;-6.664;2022-10-16T01:10:30;99043.21;;;0.75;100.00
38688;BME280;24444;53.216;-6.664;2022-10-16T01:13:02;99045.63;;;1.36;100.00
38688;BME280;24444;53.216;-6.664;2022-10-16T01:15:35;99043.26;;;0.91;100.00
38688;BME280;24444;53.216;-6.664;2022-10-16T01:18:09;99049.77;;;0.94;100.00
38688;BME280;24444;53.216;-6.664;2022-10-16T01:20:44;99059.01;;;0.99;100.00
38688;BME280;24444;53.216;-6.664;2022-10-16T01:23:25;99063.74;;;0.84;100.00
38688;BME280;24444;53.216;-6.664;2022-10-16T01:26:05;99068.74;;;1.08;100.00
38688;BME280;24444;53.216;-6.664;2022-10-16T01:28:41;99069.02;;;1.04;100.00
38688;BME280;24444;53.216;-6.664;2022-10-16T01:31:11;99070.80;;;0.99;100.00
38688;BME280;24444;53.216;-6.664;2022-10-16T01:33:44;99080.98;;;0.86;100.00
38688;BME280;24444;53.216;-6.664;2022-10-16T01:36:14;99081.38;;;0.93;100.00
38688;BME280;24444;53.216;-6.664;2022-10-16T01:38:45;99086.90;;;1.21;100.00
38688;BME280;24444;53.216;-6.664;2022-10-16T01:41:17;99086.28;;;0.88;100.00
38688;BME280;24444;53.216;-6.664;2022-10-16T01:43:48;99095.03;;;1.17;100.00
38688;BME280;24444;53.216;-6.664;2022-10-16T01:46:19;99098.41;;;1.09;100.00
38688;BME280;24444;53.216;-6.664;2022-10-16T01:48:48;99108.51;;;1.31;100.00
38688;BME280;24444;53.216;-6.664;2022-10-16T01:51:18;99116.11;;;1.27;100.00
38688;BME280;24444;53.216;-6.664;2022-10-16T01:53:49;99119.41;;;1.04;100.00
38688;BME280;24444;53.216;-6.664;2022-10-16T01:56:19;99127.97;;;1.16;100.00
38688;BME280;24444;53.216;-6.664;2022-10-16T01:58:52;99128.46;;;1.19;100.00
38688;BME280;24444;53.216;-6.664;2022-10-16T02:01:23;99124.36;;;1.10;100.00
38688;BME280;24444;53.216;-6.664;2022-10-16T02:03:54;99135.17;;;1.42;100.00
38688;BME280;24444;53.216;-6.664;2022-10-16T02:06:24;99142.64;;;1.10;100.00
38688;BME280;24444;53.216;-6.664;2022-10-16T02:08:51;99139.46;;;1.27;100.00
38688;BME280;24444;53.216;-6.664;2022-10-16T02:11:20;99141.94;;;0.95;100.00
38688;BME280;24444;53.216;-6.664;2022-10-16T02:13:52;99149.21;;;0.93;100.00
38688;BME280;24444;53.216;-6.664;2022-10-16T02:16:20;99153.15;;;0.35;100.00
38688;BME280;24444;53.216;-6.664;2022-10-16T02:18:47;99151.37;;;0.93;100.00
38688;BME280;24444;53.216;-6.664;2022-10-16T02:21:19;99160.89;;;0.53;100.00
38688;BME280;24444;53.216;-6.664;2022-10-16T02:23:53;99170.29;;;0.88;100.00
38688;BME280;24444;53.216;-6.664;2022-10-16T02:26:28;99176.29;;;0.78;100.00
38688;BME280;24444;53.216;-6.664;2022-10-16T02:29:00;99176.08;;;0.67;100.00
38688;BME280;24444;53.216;-6.664;2022-10-16T02:31:32;99180.18;;;0.84;100.00
38688;BME280;24444;53.216;-6.664;2022-10-16T02:34:02;99188.33;;;0.96;100.00
38688;BME280;24444;53.216;-6.664;2022-10-16T02:36:31;99187.80;;;0.83;100.00
38688;BME280;24444;53.216;-6.664;2022-10-16T02:39:00;99192.28;;;1.10;100.00
38688;BME280;24444;53.216;-6.664;2022-10-16T02:41:27;99195.84;;;0.77;100.00
38688;BME280;24444;53.216;-6.664;2022-10-16T02:43:54;99196.07;;;0.96;100.00
38688;BME280;24444;53.216;-6.664;2022-10-16T02:46:22;99197.54;;;1.04;100.00
38688;BME280;24444;53.216;-6.664;2022-10-16T02:48:49;99201.91;;;0.67;100.00
38688;BME280;24444;53.216;-6.664;2022-10-16T02:51:16;99211.57;;;0.48;99.91
38688;BME280;24444;53.216;-6.664;2022-10-16T02:53:44;99218.23;;;0.73;99.32
38688;BME280;24444;53.216;-6.664;2022-10-16T02:56:11;99220.18;;;0.40;99.61
38688;BME280;24444;53.216;-6.664;2022-10-16T02:58:38;99216.89;;;0.31;100.00
38688;BME280;24444;53.216;-6.664;2022-10-16T03:01:05;99222.32;;;0.97;98.81
38688;BME280;24444;53.216;-6.664;2022-10-16T03:03:32;99228.40;;;0.63;99.10
38688;BME280;24444;53.216;-6.664;2022-10-16T03:05:58;99232.10;;;1.19;97.79
38688;BME280;24444;53.216;-6.664;2022-10-16T03:08:26;99231.74;;;0.63;98.12
38688;BME280;24444;53.216;-6.664;2022-10-16T03:10:52;99232.11;;;1.12;98.05
38688;BME280;24444;53.216;-6.664;2022-10-16T03:13:19;99238.53;;;1.12;97.90
38688;BME280;24444;53.216;-6.664;2022-10-16T03:15:47;99241.54;;;1.30;96.22
38688;BME280;24444;53.216;-6.664;2022-10-16T03:18:14;99241.97;;;0.98;96.53
38688;BME280;24444;53.216;-6.664;2022-10-16T03:20:42;99245.08;;;0.50;96.84
38688;BME280;24444;53.216;-6.664;2022-10-16T03:23:10;99249.90;;;0.79;97.03
38688;BME280;24444;53.216;-6.664;2022-10-16T03:25:38;99253.74;;;1.07;95.63
38688;BME280;24444;53.216;-6.664;2022-10-16T03:28:05;99261.56;;;1.36;95.71
38688;BME280;24444;53.216;-6.664;2022-10-16T03:30:33;99268.32;;;0.50;96.60
38688;BME280;24444;53.216;-6.664;2022-10-16T03:33:01;99272.94;;;0.44;96.82
38688;BME280;24444;53.216;-6.664;2022-10-16T03:35:29;99275.95;;;0.72;97.14
38688;BME280;24444;53.216;-6.664;2022-10-16T03:37:56;99279.26;;;0.77;96.79
38688;BME280;24444;53.216;-6.664;2022-10-16T03:40:23;99282.31;;;0.18;98.18
38688;BME280;24444;53.216;-6.664;2022-10-16T03:42:51;99285.88;;;0.56;97.52
38688;BME280;24444;53.216;-6.664;2022-10-16T03:45:18;99285.60;;;0.58;96.79
38688;BME280;24444;53.216;-6.664;2022-10-16T03:47:46;99290.35;;;0.29;97.25
38688;BME280;24444;53.216;-6.664;2022-10-16T03:50:14;99289.55;;;0.43;96.69
38688;BME280;24444;53.216;-6.664;2022-10-16T03:52:42;99303.59;;;0.65;96.96
38688;BME280;24444;53.216;-6.664;2022-10-16T03:55:10;99306.84;;;0.56;96.43
38688;BME280;24444;53.216;-6.664;2022-10-16T03:57:37;99315.20;;;0.72;95.99
38688;BME280;24444;53.216;-6.664;2022-10-16T04:00:06;99324.80;;;0.58;95.60
38688;BME280;24444;53.216;-6.664;2022-10-16T04:02:34;99328.79;;;0.37;96.09
38688;BME280;24444;53.216;-6.664;2022-10-16T04:05:02;99338.00;;;0.58;95.95
38688;BME280;24444;53.216;-6.664;2022-10-16T04:07:30;99334.79;;;0.46;96.15
38688;BME280;24444;53.216;-6.664;2022-10-16T04:09:58;99340.41;;;0.21;96.51
38688;BME280;24444;53.216;-6.664;2022-10-16T04:12:26;99341.99;;;0.42;97.13
38688;BME280;24444;53.216;-6.664;2022-10-16T04:14:53;99350.36;;;0.61;97.11
38688;BME280;24444;53.216;-6.664;2022-10-16T04:17:22;99353.06;;;-0.06;97.46
38688;BME280;24444;53.216;-6.664;2022-10-16T04:19:49;99363.74;;;0.55;97.54
38688;BME280;24444;53.216;-6.664;2022-10-16T04:22:17;99376.86;;;0.39;97.44
38688;BME280;24444;53.216;-6.664;2022-10-16T04:24:45;99376.33;;;-0.07;97.99
38688;BME280;24444;53.216;-6.664;2022-10-16T04:27:12;99376.77;;;0.37;98.39
38688;BME280;24444;53.216;-6.664;2022-10-16T04:29:40;99378.64;;;-0.14;99.04
38688;BME280;24444;53.216;-6.664;2022-10-16T04:32:08;99379.23;;;-0.12;99.33
38688;BME280;24444;53.216;-6.664;2022-10-16T04:34:36;99384.30;;;0.04;99.98
38688;BME280;24444;53.216;-6.664;2022-10-16T04:37:06;99392.16;;;0.36;98.64
38688;BME280;24444;53.216;-6.664;2022-10-16T04:39:33;99399.67;;;0.18;98.71
38688;BME280;24444;53.216;-6.664;2022-10-16T04:42:01;99400.53;;;-0.04;98.37
38688;BME280;24444;53.216;-6.664;2022-10-16T04:44:29;99402.16;;;-0.07;98.18
38688;BME280;24444;53.216;-6.664;2022-10-16T04:46:57;99404.80;;;-0.03;97.88
38688;BME280;24444;53.216;-6.664;2022-10-16T04:49:25;99410.62;;;0.23;98.14
38688;BME280;24444;53.216;-6.664;2022-10-16T04:51:52;99415.01;;;0.03;97.49
38688;BME280;24444;53.216;-6.664;2022-10-16T04:54:20;99419.14;;;0.42;98.45
38688;BME280;24444;53.216;-6.664;2022-10-16T04:56:47;99416.02;;;-0.31;98.71
38688;BME280;24444;53.216;-6.664;2022-10-16T04:59:15;99417.31;;;0.09;98.35
38688;BME280;24444;53.216;-6.664;2022-10-16T05:01:43;99417.84;;;-0.23;98.30
38688;BME280;24444;53.216;-6.664;2022-10-16T05:04:11;99420.60;;;-0.37;98.77
38688;BME280;24444;53.216;-6.664;2022-10-16T05:06:39;99417.82;;;-0.29;99.36
38688;BME280;24444;53.216;-6.664;2022-10-16T05:09:06;99419.85;;;-0.01;99.10
38688;BME280;24444;53.216;-6.664;2022-10-16T05:11:34;99425.10;;;0.14;99.36
38688;BME280;24444;53.216;-6.664;2022-10-16T05:14:02;99428.45;;;0.47;98.93
38688;BME280;24444;53.216;-6.664;2022-10-16T05:16:30;99432.19;;;-0.06;98.58
38688;BME280;24444;53.216;-6.664;2022-10-16T05:18:57;99436.96;;;0.10;98.37
38688;BME280;24444;53.216;-6.664;2022-10-16T05:21:24;99439.72;;;0.22;96.87
38688;BME280;24444;53.216;-6.664;2022-10-16T05:23:53;99450.05;;;0.15;96.68
38688;BME280;24444;53.216;-6.664;2022-10-16T05:26:21;99454.28;;;-0.23;97.58
38688;BME280;24444;53.216;-6.664;2022-10-16T05:28:49;99456.47;;;-0.08;98.36
38688;BME280;24444;53.216;-6.664;2022-10-16T05:31:17;99455.71;;;-0.55;98.74
38688;BME280;24444;53.216;-6.664;2022-10-16T05:33:43;99456.80;;;0.13;99.33
38688;BME280;24444;53.216;-6.664;2022-10-16T05:36:11;99460.49;;;-0.68;99.59
38688;BME280;24444;53.216;-6.664;2022-10-16T05:38:38;99465.85;;;-0.56;100.00
38688;BME280;24444;53.216;-6.664;2022-10-16T05:41:05;99475.36;;;-0.36;99.99
38688;BME280;24444;53.216;-6.664;2022-10-16T05:43:32;99477.41;;;-0.35;100.00
38688;BME280;24444;53.216;-6.664;2022-10-16T05:46:01;99483.30;;;-0.20;100.00
38688;BME280;24444;53.216;-6.664;2022-10-16T05:48:28;99488.80;;;-0.14;100.00
38688;BME280;24444;53.216;-6.664;2022-10-16T05:50:57;99487.69;;;-0.07;100.00
38688;BME280;24444;53.216;-6.664;2022-10-16T05:53:25;99499.02;;;0.03;100.00
38688;BME280;24444;53.216;-6.664;2022-10-16T05:55:53;99506.81;;;-0.26;100.00
38688;BME280;24444;53.216;-6.664;2022-10-16T05:58:21;99506.40;;;-0.41;100.00
38688;BME280;24444;53.216;-6.664;2022-10-16T06:00:56;99510.40;;;-0.68;99.70
38688;BME280;24444;53.216;-6.664;2022-10-16T06:03:24;99510.58;;;-0.05;100.00
38688;BME280;24444;53.216;-6.664;2022-10-16T06:05:52;99513.04;;;0.27;98.25
38688;BME280;24444;53.216;-6.664;2022-10-16T06:08:21;99513.52;;;0.38;98.03
38688;BME280;24444;53.216;-6.664;2022-10-16T06:10:49;99514.41;;;-0.18;99.20
38688;BME280;24444;53.216;-6.664;2022-10-16T06:13:26;99514.69;;;-0.01;100.00
38688;BME280;24444;53.216;-6.664;2022-10-16T06:15:56;99515.12;;;-0.78;100.00
38688;BME280;24444;53.216;-6.664;2022-10-16T06:18:24;99512.78;;;-0.40;100.00
38688;BME280;24444;53.216;-6.664;2022-10-16T06:20:52;99517.31;;;-0.56;100.00
38688;BME280;24444;53.216;-6.664;2022-10-16T06:23:20;99518.05;;;-0.54;100.00
38688;BME280;24444;53.216;-6.664;2022-10-16T06:25:46;99517.26;;;-0.43;100.00
38688;BME280;24444;53.216;-6.664;2022-10-16T06:28:14;99515.15;;;-0.86;100.00
38688;BME280;24444;53.216;-6.664;2022-10-16T06:30:42;99520.40;;;-0.74;100.00
38688;BME280;24444;53.216;-6.664;2022-10-16T06:33:09;99526.29;;;-0.76;100.00
38688;BME280;24444;53.216;-6.664;2022-10-16T06:35:37;99531.83;;;-0.59;100.00
38688;BME280;24444;53.216;-6.664;2022-10-16T06:38:05;99530.89;;;-0.42;100.00
38688;BME280;24444;53.216;-6.664;2022-10-16T06:40:32;99530.18;;;-0.11;100.00
38688;BME280;24444;53.216;-6.664;2022-10-16T06:42:59;99531.03;;;-0.54;100.00
38688;BME280;24444;53.216;-6.664;2022-10-16T06:45:26;99532.25;;;-0.49;100.00
38688;BME280;24444;53.216;-6.664;2022-10-16T06:47:53;99529.14;;;-0.54;100.00
38688;BME280;24444;53.216;-6.664;2022-10-16T06:50:20;99529.80;;;-0.40;100.00
38688;BME280;24444;53.216;-6.664;2022-10-16T06:52:47;99527.14;;;0.19;100.00
38688;BME280;24444;53.216;-6.664;2022-10-16T06:55:14;99523.04;;;-0.29;99.85
38688;BME280;24444;53.216;-6.664;2022-10-16T06:57:41;99524.66;;;0.00;99.99
38688;BME280;24444;53.216;-6.664;2022-10-16T07:00:09;99523.37;;;-0.33;100.00
38688;BME280;24444;53.216;-6.664;2022-10-16T07:02:36;99523.90;;;-0.48;100.00
38688;BME280;24444;53.216;-6.664;2022-10-16T07:05:04;99523.70;;;-0.46;100.00
38688;BME280;24444;53.216;-6.664;2022-10-16T07:07:31;99525.87;;;-0.25;100.00
38688;BME280;24444;53.216;-6.664;2022-10-16T07:09:58;99529.26;;;-0.10;100.00
38688;BME280;24444;53.216;-6.664;2022-10-16T07:12:25;99529.03;;;-0.64;100.00
38688;BME280;24444;53.216;-6.664;2022-10-16T07:14:52;99526.71;;;-0.32;100.00
38688;BME280;24444;53.216;-6.664;2022-10-16T07:17:19;99532.33;;;-0.10;100.00
38688;BME280;24444;53.216;-6.664;2022-10-16T07:19:46;99538.03;;;-0.43;100.00
38688;BME280;24444;53.216;-6.664;2022-10-16T07:22:13;99540.33;;;0.01;100.00
38688;BME280;24444;53.216;-6.664;2022-10-16T07:24:40;99555.86;;;-0.08;100.00
38688;BME280;24444;53.216;-6.664;2022-10-16T07:27:07;99560.55;;;0.32;99.49
38688;BME280;24444;53.216;-6.664;2022-10-16T07:29:34;99568.51;;;0.57;98.88
38688;BME280;24444;53.216;-6.664;2022-10-16T07:32:01;99572.82;;;-0.06;98.75
38688;BME280;24444;53.216;-6.664;2022-10-16T07:34:28;99576.39;;;-0.18;99.32
38688;BME280;24444;53.216;-6.664;2022-10-16T07:36:55;99583.38;;;0.34;98.92
38688;BME280;24444;53.216;-6.664;2022-10-16T07:39:22;99588.73;;;0.51;98.28
38688;BME280;24444;53.216;-6.664;2022-10-16T07:41:49;99596.06;;;0.45;98.56
38688;BME280;24444;53.216;-6.664;2022-10-16T07:44:16;99598.02;;;0.07;98.42
38688;BME280;24444;53.216;-6.664;2022-10-16T07:46:43;99606.37;;;0.28;99.15
38688;BME280;24444;53.216;-6.664;2022-10-16T07:49:10;99611.80;;;0.19;99.63
38688;BME280;24444;53.216;-6.664;2022-10-16T07:51:37;99615.30;;;-0.01;99.27
38688;BME280;24444;53.216;-6.664;2022-10-16T07:54:05;99621.29;;;0.53;98.95
38688;BME280;24444;53.216;-6.664;2022-10-16T07:56:32;99622.55;;;0.68;98.62
38688;BME280;24444;53.216;-6.664;2022-10-16T07:58:59;99623.12;;;0.83;97.58
38688;BME280;24444;53.216;-6.664;2022-10-16T08:01:26;99620.74;;;0.39;97.91
38688;BME280;24444;53.216;-6.664;2022-10-16T08:03:54;99620.66;;;0.94;97.11
38688;BME280;24444;53.216;-6.664;2022-10-16T08:06:21;99626.05;;;1.20;96.49
38688;BME280;24444;53.216;-6.664;2022-10-16T08:08:49;99624.99;;;1.19;96.49
38688;BME280;24444;53.216;-6.664;2022-10-16T08:11:15;99628.82;;;1.27;96.17
38688;BME280;24444;53.216;-6.664;2022-10-16T08:13:42;99630.82;;;0.55;96.13
38688;BME280;24444;53.216;-6.664;2022-10-16T08:16:10;99625.20;;;1.04;95.70
38688;BME280;24444;53.216;-6.664;2022-10-16T08:18:38;99625.50;;;1.47;94.79
38688;BME280;24444;53.216;-6.664;2022-10-16T08:21:07;99630.22;;;1.47;93.51
38688;BME280;24444;53.216;-6.664;2022-10-16T08:23:37;99634.88;;;1.25;92.69
38688;BME280;24444;53.216;-6.664;2022-10-16T08:26:06;99635.52;;;2.03;92.31
38688;BME280;24444;53.216;-6.664;2022-10-16T08:28:34;99633.84;;;2.27;92.52
38688;BME280;24444;53.216;-6.664;2022-10-16T08:31:06;99634.67;;;1.17;93.59
38688;BME280;24444;53.216;-6.664;2022-10-16T08:33:33;99639.85;;;1.59;94.38
38688;BME280;24444;53.216;-6.664;2022-10-16T08:36:00;99645.74;;;2.37;92.59
38688;BME280;24444;53.216;-6.664;2022-10-16T08:38:28;99645.55;;;2.41;92.00
38688;BME280;24444;53.216;-6.664;2022-10-16T08:41:08;99646.48;;;2.24;91.10
38688;BME280;24444;53.216;-6.664;2022-10-16T08:43:50;99650.54;;;3.08;90.75
38688;BME280;24444;53.216;-6.664;2022-10-16T08:46:30;99652.17;;;2.69;90.96
38688;BME280;24444;53.216;-6.664;2022-10-16T08:49:02;99656.50;;;2.80;91.37
38688;BME280;24444;53.216;-6.664;2022-10-16T08:51:33;99660.36;;;2.69;89.50
38688;BME280;24444;53.216;-6.664;2022-10-16T08:54:03;99659.22;;;2.95;89.27
38688;BME280;24444;53.216;-6.664;2022-10-16T08:56:32;99661.90;;;2.70;89.97
38688;BME280;24444;53.216;-6.664;2022-10-16T08:58:59;99664.54;;;2.12;90.19
38688;BME280;24444;53.216;-6.664;2022-10-16T09:01:35;99672.17;;;2.50;90.97
38688;BME280;24444;53.216;-6.664;2022-10-16T09:04:26;99679.54;;;2.73;90.52
38688;BME280;24444;53.216;-6.664;2022-10-16T09:07:06;99683.88;;;2.96;91.51
38688;BME280;24444;53.216;-6.664;2022-10-16T09:09:49;99686.74;;;3.04;90.87
38688;BME280;24444;53.216;-6.664;2022-10-16T09:12:22;99696.15;;;3.15;90.29
38688;BME280;24444;53.216;-6.664;2022-10-16T09:15:01;99700.57;;;2.86;90.84
38688;BME280;24444;53.216;-6.664;2022-10-16T09:17:39;99697.00;;;2.74;90.07
38688;BME280;24444;53.216;-6.664;2022-10-16T09:20:19;99698.67;;;3.20;90.27
38688;BME280;24444;53.216;-6.664;2022-10-16T09:22:47;99703.95;;;2.76;89.85
38688;BME280;24444;53.216;-6.664;2022-10-16T09:25:16;99703.32;;;3.47;88.99
38688;BME280;24444;53.216;-6.664;2022-10-16T09:27:47;99707.82;;;2.92;89.70
38688;BME280;24444;53.216;-6.664;2022-10-16T09:30:17;99707.70;;;3.08;90.09
38688;BME280;24444;53.216;-6.664;2022-10-16T09:32:47;99706.12;;;3.04;90.45
38688;BME280;24444;53.216;-6.664;2022-10-16T09:35:19;99706.65;;;3.07;90.98
38688;BME280;24444;53.216;-6.664;2022-10-16T09:37:50;99706.76;;;2.86;91.27
38688;BME280;24444;53.216;-6.664;2022-10-16T09:40:28;99709.40;;;3.48;90.97
38688;BME280;24444;53.216;-6.664;2022-10-16T09:43:02;99705.58;;;3.07;92.06
38688;BME280;24444;53.216;-6.664;2022-10-16T09:45:31;99703.04;;;3.56;90.75
38688;BME280;24444;53.216;-6.664;2022-10-16T09:48:01;99702.11;;;4.20;89.28
38688;BME280;24444;53.216;-6.664;2022-10-16T09:50:37;99701.90;;;3.78;87.91
38688;BME280;24444;53.216;-6.664;2022-10-16T09:53:07;99699.07;;;4.23;85.47
38688;BME280;24444;53.216;-6.664;2022-10-16T09:55:48;99700.54;;;3.97;86.60
38688;BME280;24444;53.216;-6.664;2022-10-16T09:58:16;99699.24;;;3.86;87.25
38688;BME280;24444;53.216;-6.664;2022-10-16T10:00:49;99695.57;;;4.23;86.30
38688;BME280;24444;53.216;-6.664;2022-10-16T10:03:33;99698.22;;;3.78;87.23
38688;BME280;24444;53.216;-6.664;2022-10-16T10:06:06;99699.79;;;3.54;87.32
38688;BME280;24444;53.216;-6.664;2022-10-16T10:08:34;99696.79;;;3.90;86.03
38688;BME280;24444;53.216;-6.664;2022-10-16T10:11:01;99691.58;;;4.26;86.13
38688;BME280;24444;53.216;-6.664;2022-10-16T10:13:28;99692.24;;;4.17;86.33
38688;BME280;24444;53.216;-6.664;2022-10-16T10:15:56;99686.98;;;4.34;85.81
38688;BME280;24444;53.216;-6.664;2022-10-16T10:18:23;99683.02;;;4.05;84.56
38688;BME280;24444;53.216;-6.664;2022-10-16T10:21:00;99676.15;;;3.78;85.72
38688;BME280;24444;53.216;-6.664;2022-10-16T10:23:29;99672.20;;;4.01;87.31
38688;BME280;24444;53.216;-6.664;2022-10-16T10:26:01;99668.02;;;4.02;87.32
38688;BME280;24444;53.216;-6.664;2022-10-16T10:28:43;99669.31;;;3.38;87.70
38688;BME280;24444;53.216;-6.664;2022-10-16T10:31:19;99676.77;;;3.68;88.12
38688;BME280;24444;53.216;-6.664;2022-10-16T10:33:52;99676.88;;;4.45;86.28
38688;BME280;24444;53.216;-6.664;2022-10-16T10:36:28;99680.86;;;4.18;86.42
38688;BME280;24444;53.216;-6.664;2022-10-16T10:38:59;99678.70;;;4.62;85.06
38688;BME280;24444;53.216;-6.664;2022-10-16T10:41:38;99676.31;;;3.71;85.50
38688;BME280;24444;53.216;-6.664;2022-10-16T10:44:16;99681.59;;;4.09;85.24
38688;BME280;24444;53.216;-6.664;2022-10-16T10:46:51;99690.83;;;4.54;85.80
38688;BME280;24444;53.216;-6.664;2022-10-16T10:49:34;99699.41;;;4.11;88.13
38688;BME280;24444;53.216;-6.664;2022-10-16T10:52:20;99710.62;;;4.25;88.71
38688;BME280;24444;53.216;-6.664;2022-10-16T10:54:54;99715.36;;;4.13;89.67
38688;BME280;24444;53.216;-6.664;2022-10-16T10:57:29;99703.85;;;3.52;90.18
38688;BME280;24444;53.216;-6.664;2022-10-16T11:00:05;99709.45;;;3.96;90.08
38688;BME280;24444;53.216;-6.664;2022-10-16T11:02:40;99710.99;;;3.84;90.50
38688;BME280;24444;53.216;-6.664;2022-10-16T11:05:22;99714.75;;;3.93;90.17
38688;BME280;24444;53.216;-6.664;2022-10-16T11:07:55;99717.93;;;3.75;90.35
38688;BME280;24444;53.216;-6.664;2022-10-16T11:10:28;99721.97;;;3.73;89.85
38688;BME280;24444;53.216;-6.664;2022-10-16T11:13:04;99724.78;;;3.63;90.68
38688;BME280;24444;53.216;-6.664;2022-10-16T11:15:39;99728.39;;;4.10;91.07
38688;BME280;24444;53.216;-6.664;2022-10-16T11:18:13;99729.84;;;4.12;89.07
38688;BME280;24444;53.216;-6.664;2022-10-16T11:20:47;99731.06;;;4.02;90.34
38688;BME280;24444;53.216;-6.664;2022-10-16T11:23:21;99729.93;;;3.94;91.30
38688;BME280;24444;53.216;-6.664;2022-10-16T11:25:51;99725.62;;;3.99;93.68
38688;BME280;24444;53.216;-6.664;2022-10-16T11:28:25;99720.23;;;3.81;93.75
38688;BME280;24444;53.216;-6.664;2022-10-16T11:31:00;99720.14;;;3.88;93.93
38688;BME280;24444;53.216;-6.664;2022-10-16T11:33:34;99720.13;;;4.10;93.59
38688;BME280;24444;53.216;-6.664;2022-10-16T11:36:11;99718.09;;;4.05;93.02
38688;BME280;24444;53.216;-6.664;2022-10-16T11:38:46;99717.00;;;4.30;92.65
38688;BME280;24444;53.216;-6.664;2022-10-16T11:41:24;99711.89;;;4.52;91.79
38688;BME280;24444;53.216;-6.664;2022-10-16T11:44:05;99709.02;;;3.89;90.88
38688;BME280;24444;53.216;-6.664;2022-10-16T11:46:37;99704.20;;;4.69;87.75
38688;BME280;24444;53.216;-6.664;2022-10-16T11:49:11;99703.29;;;5.16;86.21
38688;BME280;24444;53.216;-6.664;2022-10-16T11:51:43;99703.12;;;5.04;85.85
38688;BME280;24444;53.216;-6.664;2022-10-16T11:54:22;99689.19;;;4.96;87.29
38688;BME280;24444;53.216;-6.664;2022-10-16T11:56:57;99675.06;;;4.93;85.10
38688;BME280;24444;53.216;-6.664;2022-10-16T11:59:31;99676.19;;;5.44;80.23
38688;BME280;24444;53.216;-6.664;2022-10-16T12:02:20;99678.53;;;5.29;78.98
38688;BME280;24444;53.216;-6.664;2022-10-16T12:05:01;99676.16;;;4.54;81.22
38688;BME280;24444;53.216;-6.664;2022-10-16T12:07:35;99673.71;;;4.67;81.16
38688;BME280;24444;53.216;-6.664;2022-10-16T12:10:20;99671.83;;;5.04;81.10
38688;BME280;24444;53.216;-6.664;2022-10-16T12:12:48;99669.78;;;4.48;79.90
38688;BME280;24444;53.216;-6.664;2022-10-16T12:15:22;99671.96;;;5.29;77.10
38688;BME280;24444;53.216;-6.664;2022-10-16T12:17:50;99674.11;;;4.70;76.94
38688;BME280;24444;53.216;-6.664;2022-10-16T12:20:28;99667.94;;;4.66;77.73
38688;BME280;24444;53.216;-6.664;2022-10-16T12:22:58;99654.78;;;4.78;79.32
38688;BME280;24444;53.216;-6.664;2022-10-16T12:25:33;99650.02;;;4.44;77.99
38688;BME280;24444;53.216;-6.664;2022-10-16T12:28:04;99654.19;;;4.70;79.15
38688;BME280;24444;53.216;-6.664;2022-10-16T12:30:35;99661.76;;;4.84;77.86
38688;BME280;24444;53.216;-6.664;2022-10-16T12:33:05;99667.42;;;5.08;76.62
38688;BME280;24444;53.216;-6.664;2022-10-16T12:35:34;99660.99;;;4.74;77.59
38688;BME280;24444;53.216;-6.664;2022-10-16T12:38:16;99661.25;;;4.88;75.97
38688;BME280;24444;53.216;-6.664;2022-10-16T12:40:45;99654.21;;;5.27;72.21
38688;BME280;24444;53.216;-6.664;2022-10-16T12:43:27;99652.53;;;5.38;72.25
38688;BME280;24444;53.216;-6.664;2022-10-16T12:46:05;99646.57;;;5.03;69.92
38688;BME280;24444;53.216;-6.664;2022-10-16T12:48:33;99637.91;;;4.89;70.01
38688;BME280;24444;53.216;-6.664;2022-10-16T12:51:10;99626.84;;;5.69;66.02
38688;BME280;24444;53.216;-6.664;2022-10-16T12:53:38;99624.62;;;5.40;65.87
38688;BME280;24444;53.216;-6.664;2022-10-16T12:56:14;99621.25;;;5.18;66.99
38688;BME280;24444;53.216;-6.664;2022-10-16T12:58:58;99611.17;;;5.41;66.22
38688;BME280;24444;53.216;-6.664;2022-10-16T13:01:39;99605.31;;;4.88;68.96
38688;BME280;24444;53.216;-6.664;2022-10-16T13:04:19;99599.64;;;4.81;68.92
38688;BME280;24444;53.216;-6.664;2022-10-16T13:06:55;99594.32;;;4.84;69.60
38688;BME280;24444;53.216;-6.664;2022-10-16T13:09:41;99586.32;;;5.06;69.80
38688;BME280;24444;53.216;-6.664;2022-10-16T13:12:27;99582.80;;;4.46;72.69
38688;BME280;24444;53.216;-6.664;2022-10-16T13:15:11;99573.40;;;4.22;76.46